Time;durP1;ratioP1;P1;durP2;ratioP2;P2;SDS_P1;SDS_P2;PMS_P1;PMS_P2;Temp;Humidity;BMP_temperature;BMP_pressure;BME280_temperature;BME280_humidity;BME280_pressure;Samples;Min_cycle;Max_cycle;Signal;HPM_P1;HPM_P2
2022/08/12 00:45:20;;;;;;;3.93;3.30;;;18.40;99.90;;;;;;5068563;28;20527;-71
2022/08/12 00:48:12;;;;;;;3.47;3.17;;;18.40;99.90;;;;;;5072381;28;20871;-71
2022/08/12 00:51:06;;;;;;;5.07;3.07;;;18.40;99.90;;;;;;5074268;28;20993;-70
2022/08/12 00:54:03;;;;;;;3.67;2.90;;;18.40;99.90;;;;;;5067396;28;20492;-71
2022/08/12 00:56:58;;;;;;;4.23;3.30;;;18.30;99.90;;;;;;5073273;28;20848;-71
2022/08/12 00:59:50;;;;;;;3.03;2.83;;;18.30;99.90;;;;;;5075037;28;20532;-70
2022/08/12 01:02:50;;;;;;;3.30;2.77;;;18.20;99.90;;;;;;5075191;28;20885;-71
2022/08/12 01:12:07;;;;;;;3.10;2.80;;;18.10;99.90;;;;;;5071397;28;21051;-70
2022/08/12 01:15:01;;;;;;;3.43;2.90;;;18.00;99.90;;;;;;5073474;28;20555;-70
2022/08/12 01:17:53;;;;;;;3.33;3.03;;;18.00;99.90;;;;;;5071553;28;20459;-70
2022/08/12 01:20:50;;;;;;;4.13;2.83;;;18.00;99.90;;;;;;5075694;28;20894;-71
2022/08/12 01:24:12;;;;;;;3.10;2.90;;;17.90;99.90;;;;;;5070163;28;20677;-70
2022/08/12 01:27:21;;;;;;;4.40;2.80;;;17.80;99.90;;;;;;5068289;28;20846;-70
2022/08/12 01:30:16;;;;;;;3.37;3.07;;;17.80;99.90;;;;;;5072088;28;20449;-70
2022/08/12 01:33:14;;;;;;;3.17;2.97;;;17.80;99.90;;;;;;5063700;28;21633;-71
2022/08/12 01:36:13;;;;;;;3.13;2.90;;;17.80;99.90;;;;;;5068330;28;20521;-70
2022/08/12 01:39:05;;;;;;;3.40;2.93;;;17.80;99.90;;;;;;5067699;28;20480;-71
2022/08/12 01:42:03;;;;;;;3.80;3.50;;;17.70;99.90;;;;;;5070309;28;20449;-72
2022/08/12 01:44:59;;;;;;;3.20;3.00;;;17.70;99.90;;;;;;5070240;28;20474;-71
2022/08/12 01:48:11;;;;;;;2.80;2.60;;;17.70;99.90;;;;;;5070222;28;20967;-71
2022/08/12 01:51:04;;;;;;;2.97;2.73;;;17.70;99.90;;;;;;5066445;28;21763;-71
2022/08/12 01:54:04;;;;;;;3.53;3.23;;;17.70;99.90;;;;;;5073435;28;20469;-70
2022/08/12 01:57:05;;;;;;;3.00;2.80;;;17.60;99.90;;;;;;5072082;28;20476;-71
2022/08/12 02:00:03;;;;;;;3.40;3.20;;;17.60;99.90;;;;;;5075116;28;20500;-71
2022/08/12 02:03:03;;;;;;;4.00;3.27;;;17.50;99.90;;;;;;5068734;28;20457;-71
2022/08/12 02:12:40;;;;;;;3.20;2.90;;;17.40;99.90;;;;;;5079382;28;20638;-70
2022/08/12 02:15:41;;;;;;;3.60;3.30;;;17.40;99.90;;;;;;5079302;28;20480;-71
2022/08/12 02:18:45;;;;;;;3.40;3.20;;;17.30;99.90;;;;;;5077865;28;20583;-71
2022/08/12 02:21:45;;;;;;;3.90;3.50;;;17.30;99.90;;;;;;5073683;28;20447;-71
2022/08/12 02:24:38;;;;;;;3.67;3.37;;;17.30;99.90;;;;;;5075041;28;20491;-71
2022/08/12 02:27:38;;;;;;;3.67;3.33;;;17.20;99.90;;;;;;5081045;28;20546;-71
2022/08/12 02:30:32;;;;;;;4.03;3.73;;;17.20;99.90;;;;;;5081358;28;20548;-70
2022/08/12 02:33:35;;;;;;;3.73;3.20;;;17.20;99.90;;;;;;5081172;28;20466;-71
2022/08/12 02:36:24;;;;;;;2.97;2.77;;;17.20;99.90;;;;;;5068853;28;20480;-70
2022/08/12 02:39:23;;;;;;;4.43;2.97;;;17.20;99.90;;;;;;5074623;28;20456;-71
2022/08/12 02:42:21;;;;;;;3.47;3.27;;;17.20;99.90;;;;;;5073775;28;20452;-70
2022/08/12 02:45:15;;;;;;;4.10;3.57;;;17.10;99.90;;;;;;5073845;28;20465;-71
2022/08/12 02:48:10;;;;;;;3.30;3.10;;;17.00;99.90;;;;;;5075115;28;20453;-70
2022/08/12 02:51:13;;;;;;;3.40;3.10;;;17.00;99.90;;;;;;5073133;28;20465;-71
2022/08/12 02:54:08;;;;;;;3.50;3.20;;;17.00;99.90;;;;;;5070617;28;20858;-71
2022/08/12 02:57:00;;;;;;;4.03;3.73;;;17.00;99.90;;;;;;5070222;28;20488;-71
2022/08/12 02:59:55;;;;;;;3.77;3.47;;;17.00;99.90;;;;;;5083857;28;20445;-70
2022/08/12 03:02:56;;;;;;;3.47;3.17;;;16.90;99.90;;;;;;5088512;28;20456;-70
2022/08/12 03:06:03;;;;;;;4.53;3.17;;;16.90;99.90;;;;;;5078537;28;20495;-70
2022/08/12 03:08:57;;;;;;;3.73;3.33;;;16.80;99.90;;;;;;5072249;28;20448;-71
2022/08/12 03:11:55;;;;;;;3.90;3.50;;;16.80;99.90;;;;;;5071752;28;20969;-70
2022/08/12 03:14:47;;;;;;;3.93;3.53;;;16.80;99.90;;;;;;5069814;28;20472;-70
2022/08/12 03:17:43;;;;;;;3.93;3.63;;;16.80;99.90;;;;;;5079058;28;20974;-70
2022/08/12 03:20:36;;;;;;;3.77;3.50;;;16.80;99.90;;;;;;5076640;28;20989;-70
2022/08/12 03:23:37;;;;;;;3.97;3.20;;;16.80;99.90;;;;;;5076718;28;20574;-70
2022/08/12 03:26:32;;;;;;;4.23;3.50;;;16.70;99.90;;;;;;5076260;28;20472;-71
2022/08/12 03:29:29;;;;;;;4.30;3.63;;;16.60;99.90;;;;;;5079179;28;20539;-71
2022/08/12 03:32:27;;;;;;;3.87;3.07;;;16.60;99.90;;;;;;5075642;28;20541;-71
2022/08/12 03:35:48;;;;;;;3.77;3.47;;;16.60;99.90;;;;;;5073961;28;20852;-71
2022/08/12 03:38:41;;;;;;;4.23;3.10;;;16.60;99.90;;;;;;5079339;28;20483;-71
2022/08/12 03:41:54;;;;;;;3.70;3.40;;;16.60;99.90;;;;;;5074366;28;20851;-71
2022/08/12 04:01:06;;;;;;;3.90;3.60;;;16.40;99.90;;;;;;5075650;28;20453;-70
2022/08/12 04:04:07;;;;;;;4.33;3.93;;;16.40;99.90;;;;;;5071426;28;20461;-70
2022/08/12 04:06:57;;;;;;;3.70;3.40;;;16.30;99.90;;;;;;5075267;28;20457;-71
2022/08/12 04:10:13;;;;;;;4.07;3.77;;;16.30;99.90;;;;;;5074127;28;20456;-70
2022/08/12 04:13:22;;;;;;;3.80;3.10;;;16.30;99.90;;;;;;5075268;28;20560;-70
2022/08/12 04:16:32;;;;;;;3.17;2.97;;;16.30;99.90;;;;;;5074702;28;20479;-70
2022/08/12 04:20:10;;;;;;;3.80;3.50;;;16.30;99.90;;;;;;5076640;28;20553;-71
2022/08/12 04:23:03;;;;;;;3.60;3.27;;;16.30;99.90;;;;;;5076432;28;20827;-70
2022/08/12 04:25:55;;;;;;;3.70;3.40;;;16.20;99.90;;;;;;5072970;28;21001;-70
2022/08/12 04:29:02;;;;;;;5.10;3.53;;;16.30;99.90;;;;;;5075515;28;20523;-70
2022/08/12 04:32:01;;;;;;;4.10;3.70;;;16.20;99.90;;;;;;5068540;28;20453;-70
2022/08/12 04:35:30;;;;;;;3.40;3.10;;;16.20;99.90;;;;;;5077407;28;20619;-70
2022/08/12 04:38:30;;;;;;;4.73;3.97;;;16.20;99.90;;;;;;5073001;28;20458;-70
2022/08/12 04:41:23;;;;;;;5.30;3.03;;;16.20;99.90;;;;;;5068677;28;20537;-70
2022/08/12 04:44:12;;;;;;;3.43;3.23;;;16.20;99.90;;;;;;5069629;28;20452;-70
2022/08/12 04:47:03;;;;;;;5.03;3.60;;;16.30;99.90;;;;;;5068556;28;20461;-70
2022/08/12 04:49:54;;;;;;;3.63;2.80;;;16.30;99.90;;;;;;5069603;28;20557;-70
2022/08/12 04:52:42;;;;;;;3.83;3.53;;;16.30;99.90;;;;;;5070535;28;20453;-70
2022/08/12 04:55:32;;;;;;;4.00;3.70;;;16.20;99.90;;;;;;5069118;28;20482;-70
2022/08/12 04:58:28;;;;;;;4.83;3.93;;;16.20;99.90;;;;;;5073184;28;20836;-70
2022/08/12 05:01:41;;;;;;;3.77;3.47;;;16.30;99.90;;;;;;5062876;28;20973;-70
2022/08/12 05:04:36;;;;;;;4.17;3.87;;;16.30;99.90;;;;;;5069077;28;20465;-71
2022/08/12 05:07:41;;;;;;;4.07;3.67;;;16.30;99.90;;;;;;5062038;28;20445;-71
2022/08/12 05:10:45;;;;;;;6.93;3.40;;;16.30;99.90;;;;;;5071505;28;20973;-74
2022/08/12 05:13:40;;;;;;;4.07;3.63;;;16.40;99.90;;;;;;5063221;28;21160;-70
2022/08/12 05:16:30;;;;;;;3.60;3.30;;;16.40;99.90;;;;;;5061539;28;20853;-71
2022/08/12 05:19:25;;;;;;;4.07;3.67;;;16.40;99.90;;;;;;5069331;28;20883;-71
2022/08/12 05:28:41;;;;;;;3.70;3.40;;;16.60;99.90;;;;;;5055027;28;20449;-70
2022/08/12 05:31:43;;;;;;;3.73;3.43;;;16.60;99.90;;;;;;5054705;28;20588;-70
2022/08/12 05:34:40;;;;;;;3.90;3.60;;;16.70;99.90;;;;;;5054419;28;20906;-70
2022/08/12 05:37:32;;;;;;;4.20;3.90;;;16.70;99.90;;;;;;5065942;28;20461;-70
2022/08/12 05:40:20;;;;;;;5.20;3.70;;;16.70;99.90;;;;;;5065895;28;20503;-70
2022/08/12 05:43:15;;;;;;;3.40;3.03;;;16.80;99.90;;;;;;5060624;28;20451;-70
2022/08/12 05:46:06;;;;;;;4.00;3.70;;;16.90;99.90;;;;;;5059730;28;20547;-72
2022/08/12 05:48:59;;;;;;;3.87;3.57;;;17.00;99.90;;;;;;5060651;28;20462;-70
2022/08/12 05:51:48;;;;;;;4.13;3.70;;;17.10;99.90;;;;;;5055405;28;20467;-70
2022/08/12 05:54:42;;;;;;;4.20;3.90;;;17.10;99.90;;;;;;5055276;28;20562;-70
2022/08/12 05:57:47;;;;;;;4.20;3.80;;;17.20;99.90;;;;;;5061790;28;21033;-70
2022/08/12 06:00:36;;;;;;;4.00;3.70;;;17.30;99.90;;;;;;5050886;28;21361;-69
2022/08/12 06:03:26;;;;;;;3.87;3.47;;;17.40;99.90;;;;;;5050104;28;20598;-69
2022/08/12 06:06:16;;;;;;;4.97;3.70;;;17.40;99.90;;;;;;5046105;28;20504;-69
2022/08/12 06:09:05;;;;;;;3.57;3.27;;;17.50;99.90;;;;;;5051452;28;20458;-69
2022/08/12 06:11:54;;;;;;;3.70;3.40;;;17.60;99.90;;;;;;5061589;28;20520;-69
2022/08/12 06:14:54;;;;;;;3.67;3.47;;;17.70;99.90;;;;;;5050555;28;20482;-69
2022/08/12 06:17:42;;;;;;;3.87;3.57;;;17.70;99.90;;;;;;5049065;28;20827;-69
2022/08/12 06:20:32;;;;;;;3.93;3.63;;;17.90;99.90;;;;;;5051225;28;22722;-69
2022/08/12 06:23:21;;;;;;;4.20;3.80;;;17.90;99.90;;;;;;5049500;28;20462;-69
2022/08/12 06:26:13;;;;;;;6.33;3.73;;;18.00;99.90;;;;;;5054133;28;20473;-69
2022/08/12 06:29:03;;;;;;;4.40;4.00;;;18.10;99.90;;;;;;5049630;28;20453;-69
2022/08/12 06:31:54;;;;;;;4.47;4.13;;;18.20;99.90;;;;;;5046839;28;20454;-69
2022/08/12 06:34:42;;;;;;;6.33;3.80;;;18.20;99.90;;;;;;5059503;28;20484;-69
2022/08/12 06:37:54;;;;;;;4.87;4.37;;;18.30;99.90;;;;;;5049865;28;20460;-68
2022/08/12 06:44:03;;;;;;;6.27;3.90;;;18.50;99.90;;;;;;4999506;28;20478;-72
2022/08/12 06:46:56;;;;;;;3.70;3.40;;;18.60;99.90;;;;;;5062932;28;20449;-72
2022/08/12 06:49:47;;;;;;;7.57;3.83;;;18.70;99.90;;;;;;5065405;28;20457;-71
2022/08/12 06:52:35;;;;;;;4.67;3.70;;;18.70;99.90;;;;;;5061893;28;20453;-70
2022/08/12 06:55:25;;;;;;;8.00;4.00;;;18.80;99.90;;;;;;5068632;28;20498;-69
2022/08/12 06:58:15;;;;;;;5.40;3.63;;;19.00;99.90;;;;;;5068186;28;20505;-69
2022/08/12 07:01:03;;;;;;;4.10;3.80;;;19.00;99.90;;;;;;5064720;28;20538;-69
2022/08/12 07:03:52;;;;;;;5.43;4.60;;;19.10;99.90;;;;;;5064036;28;20467;-69
2022/08/12 07:06:44;;;;;;;4.37;4.07;;;19.20;99.90;;;;;;5066742;28;20461;-69
2022/08/12 07:09:32;;;;;;;5.10;4.10;;;19.30;99.90;;;;;;5058933;28;20449;-69
2022/08/12 07:12:50;;;;;;;4.50;4.10;;;19.40;99.90;;;;;;5060483;28;20506;-72
2022/08/12 07:15:39;;;;;;;5.73;3.80;;;19.50;99.90;;;;;;5064477;28;20477;-70
2022/08/12 07:18:29;;;;;;;5.43;3.97;;;19.60;99.90;;;;;;5068782;28;20573;-69
2022/08/12 07:21:18;;;;;;;5.90;4.17;;;19.60;99.90;;;;;;5059290;28;20489;-69
2022/08/12 07:24:06;;;;;;;5.07;3.70;;;19.70;99.90;;;;;;5069441;28;21082;-68
2022/08/12 07:26:55;;;;;;;4.50;3.33;;;19.80;99.90;;;;;;5071077;28;20539;-69
2022/08/12 07:29:46;;;;;;;4.07;3.53;;;19.90;99.90;;;;;;5072747;28;20483;-69
2022/08/12 07:32:51;;;;;;;4.00;3.60;;;20.00;99.90;;;;;;5064537;28;20989;-69
2022/08/12 07:35:44;;;;;;;4.03;3.63;;;20.10;99.90;;;;;;5061858;28;20481;-70
2022/08/12 07:38:34;;;;;;;4.40;3.23;;;20.20;99.90;;;;;;5084810;28;20446;-69
2022/08/12 07:41:24;;;;;;;3.63;3.30;;;20.30;99.90;;;;;;5080221;28;20555;-69
2022/08/12 07:44:13;;;;;;;3.50;3.20;;;20.40;99.90;;;;;;5080086;28;20528;-69
2022/08/12 07:47:06;;;;;;;4.30;3.90;;;20.40;99.90;;;;;;5069916;28;20455;-69
2022/08/12 07:49:55;;;;;;;3.93;3.63;;;20.50;99.90;;;;;;5077338;28;20580;-70
2022/08/12 07:52:53;;;;;;;5.30;3.70;;;20.60;99.90;;;;;;5088176;28;20449;-69
2022/08/12 07:55:41;;;;;;;3.70;3.40;;;20.70;99.90;;;;;;5076004;28;20541;-70
2022/08/12 07:58:30;;;;;;;3.90;3.20;;;20.80;99.90;;;;;;5072896;28;20961;-70
2022/08/12 08:01:21;;;;;;;4.90;3.40;;;20.90;99.90;;;;;;5074893;28;20473;-69
2022/08/12 08:07:17;;;;;;;4.47;3.90;;;21.10;99.90;;;;;;5067315;28;20449;-69
2022/08/12 08:10:09;;;;;;;3.70;3.40;;;21.30;99.90;;;;;;5068945;28;20452;-69
2022/08/12 08:12:57;;;;;;;3.43;3.17;;;21.30;99.90;;;;;;5073672;28;20456;-70
2022/08/12 08:15:48;;;;;;;4.13;3.63;;;21.50;99.90;;;;;;5064770;28;20484;-69
2022/08/12 08:18:52;;;;;;;5.90;3.60;;;21.60;99.90;;;;;;5069976;28;20501;-70
2022/08/12 08:21:42;;;;;;;4.17;3.77;;;21.60;99.90;;;;;;5063550;28;20635;-70
2022/08/12 08:24:31;;;;;;;3.80;3.50;;;21.80;99.90;;;;;;5064806;28;20617;-71
2022/08/12 08:27:20;;;;;;;4.50;3.57;;;21.90;99.90;;;;;;5067542;28;20450;-71
2022/08/12 08:30:10;;;;;;;4.00;3.60;;;21.90;99.90;;;;;;5067324;28;20555;-71
2022/08/12 08:32:59;;;;;;;3.90;3.13;;;22.10;99.90;;;;;;5072009;28;20828;-71
2022/08/12 08:35:48;;;;;;;4.20;3.80;;;22.20;99.90;;;;;;5061130;28;20568;-70
2022/08/12 08:38:44;;;;;;;4.00;3.60;;;22.30;99.90;;;;;;5065741;28;21068;-70
2022/08/12 08:45:11;;;;;;;4.77;3.43;;;22.60;99.90;;;;;;5065018;28;21029;-71
2022/08/12 08:48:03;;;;;;;4.83;4.10;;;22.70;99.90;;;;;;5064099;28;20453;-70
2022/08/12 08:50:51;;;;;;;10.67;3.90;;;22.80;99.90;;;;;;5069806;28;20468;-70
2022/08/12 08:53:53;;;;;;;4.03;3.30;;;22.90;99.90;;;;;;5067620;28;20454;-71
2022/08/12 08:56:43;;;;;;;3.60;3.30;;;23.00;99.90;;;;;;5073456;28;20523;-71
2022/08/12 08:59:32;;;;;;;5.23;3.27;;;23.10;99.90;;;;;;5056248;28;20547;-70
2022/08/12 09:02:20;;;;;;;3.37;3.03;;;23.30;99.90;;;;;;5062275;28;20449;-70
2022/08/12 09:05:11;;;;;;;3.20;3.00;;;23.30;99.90;;;;;;5065787;28;20468;-70
2022/08/12 09:08:12;;;;;;;3.43;3.13;;;23.40;99.90;;;;;;5063016;28;20459;-70
2022/08/12 09:14:42;;;;;;;3.03;2.80;;;23.70;99.90;;;;;;5064526;28;20518;-71
2022/08/12 09:17:38;;;;;;;3.50;3.20;;;23.90;99.90;;;;;;5064531;28;20564;-71
2022/08/12 09:20:32;;;;;;;3.50;3.20;;;24.00;99.90;;;;;;5068993;28;20466;-71
2022/08/12 09:23:26;;;;;;;3.00;2.80;;;24.20;99.90;;;;;;5064050;28;20544;-71
2022/08/12 09:26:37;;;;;;;3.30;3.00;;;24.30;99.90;;;;;;5062816;28;20452;-71
2022/08/12 09:29:34;;;;;;;3.63;3.33;;;24.40;99.90;;;;;;5070569;28;20494;-70
2022/08/12 09:32:49;;;;;;;3.73;3.43;;;24.50;99.90;;;;;;5059309;28;20453;-70
2022/08/12 09:35:57;;;;;;;3.67;3.37;;;24.70;99.90;;;;;;5062559;28;21068;-70
2022/08/12 09:38:52;;;;;;;2.97;2.77;;;24.80;99.90;;;;;;5063808;28;20972;-70
2022/08/12 09:45:19;;;;;;;3.03;2.83;;;24.90;99.90;;;;;;5063482;28;20466;-70
2022/08/12 09:45:21;;;;;;;3.20;2.90;;;25.00;99.90;;;;;;5062771;28;20979;-70
2022/08/12 09:48:15;;;;;;;3.60;3.00;;;25.10;99.90;;;;;;5064422;28;20957;-71
2022/08/12 09:51:09;;;;;;;3.80;3.33;;;25.20;99.90;;;;;;5066547;28;20936;-70
2022/08/12 09:54:11;;;;;;;3.00;2.80;;;25.30;99.90;;;;;;5063735;28;20564;-70
2022/08/12 09:57:24;;;;;;;3.43;3.13;;;25.40;99.90;;;;;;5062339;28;20505;-70
2022/08/12 10:00:34;;;;;;;4.80;3.20;;;25.50;99.90;;;;;;5058738;28;20448;-71
2022/08/12 10:03:42;;;;;;;5.37;4.13;;;25.70;99.90;;;;;;5057918;28;20978;-70
2022/08/12 10:06:50;;;;;;;3.30;3.07;;;25.80;99.90;;;;;;5059499;28;20457;-70
2022/08/12 10:09:42;;;;;;;3.20;2.90;;;25.80;99.90;;;;;;5064460;28;20462;-70
2022/08/12 10:15:54;;;;;;;3.83;3.20;;;25.90;99.90;;;;;;5053968;28;20521;-71
2022/08/12 10:18:54;;;;;;;3.10;2.90;;;26.00;99.90;;;;;;5063897;28;20897;-71
2022/08/12 10:21:43;;;;;;;3.63;3.33;;;26.20;99.90;;;;;;5053384;28;20538;-71
2022/08/12 10:29:35;;;;;;;2.80;2.60;;;26.20;99.90;;;;;;5063481;28;20470;-70
2022/08/12 10:31:12;;;;;;;3.27;3.00;;;26.50;99.90;;;;;;5060119;28;20461;-71
2022/08/12 10:34:04;;;;;;;3.40;3.03;;;26.60;99.90;;;;;;5063847;28;20448;-71
2022/08/12 10:37:11;;;;;;;4.70;3.07;;;26.60;99.90;;;;;;5071493;28;20480;-71
2022/08/12 10:40:21;;;;;;;3.20;2.90;;;26.70;99.90;;;;;;5064801;28;20453;-70
2022/08/12 10:46:44;;;;;;;2.90;2.53;;;26.90;99.90;;;;;;5062668;28;20438;-71
2022/08/12 10:49:36;;;;;;;3.27;2.97;;;27.00;99.90;;;;;;5073770;28;20441;-72
2022/08/12 10:52:47;;;;;;;2.90;2.70;;;27.10;99.90;;;;;;5069899;28;20606;-72
2022/08/12 10:55:39;;;;;;;3.00;2.70;;;27.10;99.90;;;;;;5075086;28;20497;-72
2022/08/12 10:58:35;;;;;;;3.13;2.90;;;27.20;99.90;;;;;;5070860;28;20465;-71
2022/08/12 11:01:23;;;;;;;2.90;2.53;;;27.30;99.90;;;;;;5065581;28;20464;-71
2022/08/12 11:04:32;;;;;;;4.03;2.47;;;27.40;99.90;;;;;;5066749;28;20518;-71
2022/08/12 11:07:37;;;;;;;3.20;2.90;;;27.50;99.90;;;;;;5064681;28;21361;-71
2022/08/12 11:10:46;;;;;;;3.03;2.83;;;27.60;99.90;;;;;;5071874;28;20445;-71
2022/08/12 11:13:36;;;;;;;3.33;2.97;;;27.60;99.90;;;;;;5062654;28;20525;-71
2022/08/12 11:16:37;;;;;;;3.27;3.03;;;27.80;99.90;;;;;;5072389;28;20476;-71
2022/08/12 11:19:25;;;;;;;3.47;3.27;;;27.80;99.90;;;;;;5069372;28;20972;-71
2022/08/12 11:22:17;;;;;;;3.03;2.80;;;27.90;99.90;;;;;;5071084;28;20452;-71
2022/08/12 11:25:11;;;;;;;3.00;2.70;;;27.90;99.90;;;;;;5069434;28;20478;-71
2022/08/12 11:27:59;;;;;;;3.13;2.77;;;28.00;99.90;;;;;;5072633;28;20546;-71
2022/08/12 11:30:49;;;;;;;3.27;2.83;;;28.10;99.90;;;;;;5078127;28;20457;-71
2022/08/12 11:33:41;;;;;;;3.13;2.80;;;28.20;99.90;;;;;;5064444;28;20566;-71
2022/08/12 11:36:50;;;;;;;3.03;2.70;;;28.30;99.90;;;;;;5069602;28;20477;-71
2022/08/12 11:39:40;;;;;;;3.30;3.00;;;28.40;99.90;;;;;;5073091;28;20449;-71
2022/08/12 11:42:48;;;;;;;3.13;2.80;;;28.40;99.90;;;;;;5072431;28;20506;-71
2022/08/12 11:45:39;;;;;;;3.30;2.90;;;28.50;99.90;;;;;;5070286;28;20477;-73
2022/08/12 11:48:38;;;;;;;2.93;2.73;;;28.60;99.90;;;;;;5070162;28;20461;-71
2022/08/12 11:51:39;;;;;;;3.33;3.00;;;28.60;99.90;;;;;;5060135;28;20535;-71
2022/08/12 11:54:28;;;;;;;2.80;2.60;;;28.80;99.90;;;;;;5066710;28;20453;-71
2022/08/12 11:57:17;;;;;;;3.10;2.70;;;28.90;99.90;;;;;;5068543;28;21025;-71
2022/08/12 12:00:27;;;;;;;4.00;2.90;;;29.00;99.90;;;;;;5065761;28;20587;-71
2022/08/12 12:03:36;;;;;;;3.40;3.07;;;29.10;99.90;;;;;;5066496;28;20492;-70
2022/08/12 12:06:34;;;;;;;2.70;2.50;;;29.20;99.90;;;;;;5063379;28;20476;-71
2022/08/12 12:09:24;;;;;;;2.60;2.40;;;29.40;99.90;;;;;;5060493;28;22262;-71
2022/08/12 12:12:13;;;;;;;2.80;2.60;;;29.40;99.70;;;;;;5068305;28;20583;-71
2022/08/12 12:15:05;;;;;;;2.90;2.70;;;29.50;99.20;;;;;;5061638;28;20469;-72
2022/08/12 12:17:59;;;;;;;3.50;2.67;;;29.60;98.50;;;;;;5069243;28;20471;-72
2022/08/12 12:20:47;;;;;;;3.50;2.80;;;29.80;97.30;;;;;;5069191;28;20481;-72
2022/08/12 12:23:37;;;;;;;3.53;3.00;;;29.90;97.20;;;;;;5069638;28;20584;-72
2022/08/12 12:26:34;;;;;;;3.00;2.77;;;30.00;95.80;;;;;;5069672;28;20484;-72
2022/08/12 12:29:28;;;;;;;3.20;2.67;;;30.10;95.00;;;;;;5057187;28;20462;-73
2022/08/12 12:32:36;;;;;;;3.10;2.90;;;30.20;94.40;;;;;;5071031;28;20476;-72
2022/08/12 12:35:26;;;;;;;3.07;2.80;;;30.30;92.90;;;;;;5062309;28;20552;-72
2022/08/12 12:38:35;;;;;;;2.93;2.73;;;30.40;95.80;;;;;;5071156;28;20478;-72
2022/08/12 12:41:24;;;;;;;2.70;2.50;;;30.50;93.40;;;;;;5064227;28;20499;-72
2022/08/12 12:44:33;;;;;;;2.87;2.53;;;30.60;92.10;;;;;;5059782;28;20472;-71
2022/08/12 12:47:31;;;;;;;2.50;2.30;;;30.70;90.60;;;;;;5069476;28;20963;-71
2022/08/12 12:50:25;;;;;;;3.40;2.80;;;30.80;89.70;;;;;;5063938;28;20450;-71
2022/08/12 12:53:23;;;;;;;3.53;2.73;;;30.90;91.00;;;;;;5071277;28;20863;-71
2022/08/12 12:56:32;;;;;;;3.03;2.73;;;31.00;88.90;;;;;;5059946;28;20469;-71
2022/08/12 12:59:23;;;;;;;2.80;2.60;;;31.20;90.70;;;;;;5043407;28;20457;-72
2022/08/12 13:02:31;;;;;;;4.13;2.47;;;31.20;85.70;;;;;;5055149;28;20510;-70
2022/08/12 13:05:21;;;;;;;2.87;2.67;;;31.30;87.10;;;;;;5053753;28;21000;-71
2022/08/12 13:08:23;;;;;;;4.70;2.83;;;31.50;85.70;;;;;;5069621;28;20449;-70
2022/08/12 13:11:27;;;;;;;2.70;2.50;;;31.60;82.70;;;;;;5065607;28;20449;-70
2022/08/12 13:14:36;;;;;;;2.80;2.60;;;31.70;82.00;;;;;;5066418;28;20984;-69
2022/08/12 13:17:30;;;;;;;2.93;2.73;;;31.80;84.20;;;;;;5063088;28;20473;-71
2022/08/12 13:20:42;;;;;;;3.20;2.87;;;31.90;81.50;;;;;;5064062;28;21037;-71
2022/08/12 13:23:30;;;;;;;3.30;2.60;;;32.00;82.50;;;;;;5064591;28;20492;-72
2022/08/12 13:26:33;;;;;;;2.90;2.70;;;32.20;79.00;;;;;;5065844;28;20569;-71
2022/08/12 13:29:32;;;;;;;3.60;2.50;;;32.20;79.70;;;;;;5069313;28;20962;-71
2022/08/12 13:32:22;;;;;;;3.90;2.77;;;32.40;82.50;;;;;;5061657;28;20457;-71
2022/08/12 13:35:18;;;;;;;4.00;2.50;;;32.40;77.90;;;;;;5060252;28;20482;-72
2022/08/12 13:38:37;;;;;;;2.70;2.40;;;32.50;79.20;;;;;;5065334;28;20480;-70
2022/08/12 13:41:36;;;;;;;3.60;2.67;;;32.70;80.70;;;;;;5059318;28;20619;-70
2022/08/12 13:44:25;;;;;;;2.53;2.33;;;32.90;78.10;;;;;;5063724;28;21092;-71
2022/08/12 13:47:14;;;;;;;2.47;2.37;;;32.90;74.90;;;;;;5056172;28;20476;-70
2022/08/12 13:50:10;;;;;;;2.93;2.73;;;33.00;77.20;;;;;;5053783;28;20518;-72
2022/08/12 13:53:00;;;;;;;2.90;2.80;;;33.10;75.90;;;;;;5056066;28;21083;-72
2022/08/12 13:56:10;;;;;;;4.30;2.30;;;33.30;73.40;;;;;;5065808;28;20465;-71
2022/08/12 13:59:01;;;;;;;2.70;2.50;;;33.40;75.20;;;;;;5057210;28;20530;-71
2022/08/12 14:01:53;;;;;;;3.17;2.67;;;33.40;74.40;;;;;;5056217;28;20453;-70
2022/08/12 14:04:44;;;;;;;4.50;2.47;;;33.70;74.90;;;;;;5063812;28;20483;-71
2022/08/12 14:07:57;;;;;;;2.63;2.43;;;33.80;73.10;;;;;;5058554;28;21039;-72
2022/08/12 14:10:50;;;;;;;2.70;2.50;;;33.90;74.90;;;;;;5065957;28;20453;-69
2022/08/12 14:13:41;;;;;;;2.50;2.30;;;34.10;75.30;;;;;;5058781;28;21041;-72
2022/08/12 14:16:49;;;;;;;4.07;2.60;;;34.30;72.60;;;;;;5050014;28;20971;-70
2022/08/12 14:20:11;;;;;;;3.50;2.60;;;34.40;69.50;;;;;;5062870;28;20480;-70
2022/08/12 14:22:50;;;;;;;2.77;2.57;;;34.50;70.00;;;;;;5058937;28;20465;-71
2022/08/12 14:25:47;;;;;;;2.30;2.20;;;34.60;67.00;;;;;;5062152;28;21007;-70
2022/08/12 14:28:41;;;;;;;2.57;2.37;;;34.90;67.70;;;;;;5065990;28;20457;-71
2022/08/12 14:31:45;;;;;;;2.77;2.53;;;35.10;67.60;;;;;;5062694;28;20456;-70
2022/08/12 14:34:38;;;;;;;2.90;2.70;;;35.40;65.60;;;;;;5062491;28;20472;-72
2022/08/12 14:37:33;;;;;;;2.30;2.10;;;35.40;64.50;;;;;;5074694;28;20871;-73
2022/08/12 14:40:44;;;;;;;4.17;2.43;;;35.70;67.10;;;;;;5070406;28;20480;-73
2022/08/12 14:43:34;;;;;;;2.60;2.40;;;35.80;64.60;;;;;;5075739;28;20523;-71
2022/08/12 14:46:42;;;;;;;2.70;2.50;;;36.20;62.80;;;;;;5064663;28;20500;-71
2022/08/12 14:49:34;;;;;;;2.60;2.40;;;36.70;59.20;;;;;;5078693;28;20473;-73
2022/08/12 14:52:42;;;;;;;2.60;2.40;;;37.40;59.00;;;;;;5074526;28;20460;-71
2022/08/12 14:55:53;;;;;;;5.50;2.15;;;37.80;59.50;;;;;;5067656;28;20596;-72
2022/08/12 15:02:15;;;;;;;5.20;2.40;;;37.50;58.50;;;;;;5069628;28;20472;-71
2022/08/12 15:05:05;;;;;;;2.77;2.57;;;37.10;59.50;;;;;;5072930;28;20480;-71
2022/08/12 15:07:57;;;;;;;2.50;2.27;;;37.00;59.20;;;;;;5073063;28;20476;-70
2022/08/12 15:10:59;;;;;;;2.87;2.63;;;36.70;58.50;;;;;;5073411;28;21054;-72
2022/08/12 15:13:49;;;;;;;2.60;2.40;;;36.40;56.80;;;;;;5076330;28;20459;-71
2022/08/12 15:16:38;;;;;;;3.20;2.50;;;36.00;56.90;;;;;;5078486;28;20479;-71
2022/08/12 15:19:28;;;;;;;2.70;2.43;;;35.80;57.80;;;;;;5077505;28;20523;-72
2022/08/12 15:22:37;;;;;;;2.77;2.53;;;35.40;56.20;;;;;;5073580;28;20450;-72
2022/08/12 15:25:42;;;;;;;2.70;2.40;;;35.30;57.80;;;;;;5071380;28;20499;-72
2022/08/12 15:28:36;;;;;;;2.53;2.33;;;35.00;56.20;;;;;;5074779;28;20544;-71
2022/08/12 15:31:24;;;;;;;4.57;2.37;;;34.70;57.50;;;;;;5071276;28;20843;-71
2022/08/12 15:34:37;;;;;;;2.40;2.23;;;34.60;57.70;;;;;;5067348;28;21002;-73
2022/08/12 15:37:26;;;;;;;2.60;2.50;;;34.40;57.70;;;;;;5071698;28;20477;-71
2022/08/12 15:40:35;;;;;;;2.97;2.60;;;34.20;57.80;;;;;;5075727;28;20457;-72
2022/08/12 15:43:34;;;;;;;2.60;2.40;;;34.00;58.90;;;;;;5070226;28;20532;-73
2022/08/12 15:46:45;;;;;;;2.70;2.50;;;33.80;59.50;;;;;;5070577;28;20454;-73
2022/08/12 15:49:36;;;;;;;2.43;2.20;;;33.70;58.80;;;;;;5071488;28;20476;-73
2022/08/12 15:52:44;;;;;;;3.50;3.27;;;33.50;58.40;;;;;;5072827;28;20977;-72
2022/08/12 15:55:36;;;;;;;5.30;2.93;;;33.40;60.60;;;;;;5071107;28;20470;-71
2022/08/12 15:58:34;;;;;;;2.87;2.67;;;33.20;59.50;;;;;;5064888;28;20498;-73
2022/08/12 16:01:23;;;;;;;3.30;3.00;;;33.20;61.40;;;;;;5071840;28;20471;-71
2022/08/12 16:04:23;;;;;;;2.80;2.60;;;33.00;59.80;;;;;;5069890;28;20592;-70
2022/08/12 16:07:13;;;;;;;3.00;2.73;;;32.90;61.60;;;;;;5067252;28;20587;-71
2022/08/12 16:10:05;;;;;;;3.87;2.77;;;32.80;59.50;;;;;;5075429;28;20603;-71
2022/08/12 16:12:57;;;;;;;2.90;2.67;;;32.80;59.80;;;;;;5072432;28;20444;-71
2022/08/12 16:15:46;;;;;;;2.90;2.70;;;32.70;59.30;;;;;;5065021;28;20594;-71
2022/08/12 16:18:50;;;;;;;5.73;2.83;;;32.70;60.40;;;;;;5043387;28;20519;-71
2022/08/12 16:21:42;;;;;;;2.77;2.40;;;32.60;59.10;;;;;;5046631;28;20958;-71
2022/08/12 16:24:47;;;;;;;2.57;2.40;;;32.60;59.40;;;;;;5050996;28;20527;-71
2022/08/12 16:27:40;;;;;;;2.93;2.63;;;32.60;60.10;;;;;;5066722;28;20449;-72
2022/08/12 16:30:33;;;;;;;4.07;2.80;;;32.60;66.10;;;;;;5064686;28;20457;-73
2022/08/12 16:33:34;;;;;;;2.80;2.60;;;32.60;68.90;;;;;;5056799;28;20445;-73
2022/08/12 16:36:44;;;;;;;3.13;2.93;;;32.60;70.10;;;;;;5059674;28;20500;-73
2022/08/12 16:39:34;;;;;;;3.30;3.00;;;32.60;71.00;;;;;;5049665;28;20478;-71
2022/08/12 16:42:43;;;;;;;3.70;2.80;;;32.50;71.90;;;;;;5057196;28;21029;-72
2022/08/12 16:45:48;;;;;;;3.70;2.90;;;32.40;71.80;;;;;;5053228;28;20926;-71
2022/08/12 16:48:57;;;;;;;4.63;2.90;;;32.30;72.70;;;;;;5051728;28;20449;-72
2022/08/12 16:51:50;;;;;;;3.40;3.20;;;32.20;73.20;;;;;;5056354;28;20454;-71
2022/08/12 16:54:38;;;;;;;5.63;3.00;;;32.10;73.30;;;;;;5056384;28;21052;-71
2022/08/12 16:57:30;;;;;;;2.63;2.43;;;32.10;74.60;;;;;;5067456;28;20461;-72
2022/08/12 17:00:23;;;;;;;4.70;2.90;;;32.10;74.50;;;;;;5057968;28;20579;-73
2022/08/12 17:03:13;;;;;;;2.70;2.50;;;32.00;74.70;;;;;;5053950;28;21843;-73
2022/08/12 17:06:22;;;;;;;2.63;2.43;;;31.80;75.00;;;;;;5060072;28;20574;-72
2022/08/12 17:09:18;;;;;;;3.20;2.90;;;31.70;77.00;;;;;;5053534;28;20511;-72